Terminal Aerodrome Forecast
Issued by NWS Cleveland, OH

Home | Current Version | Previous Version | Graphics & Text | Print | Product List | Glossary On
Versions: 1 2 3 4 5 6 7 8 9 10 11 12 13
829
FTUS41 KCLE 132330
TAFYNG
TAF
KYNG 132330Z 1400/1424 04005KT P6SM SCT250
     FM140900 VRB03KT 2SM BR SCT250
     FM141300 10004KT P6SM BKN250
     FM141600 18006KT P6SM FEW040 BKN250=

USA.gov is the U.S. government's official web portal to all federal, state and local government web resources and services.